Mackenzie Airport
CYZY : now visible

Aeroporto :











RITROVATECI SU...

 
LOGIN :

Iscrizione | Disclaimer

   EN    FR    IT 

 









Sommario :    VFR   VFR Marginale   IFR   IFR Intensivo   IFR Molto Intensivo
Visibilità : 
Base nubi : 
>= 8 km
>= 3000ft
5 / 8 km
1000 / 3000 ft
1500m / 5 km
500 / 1000 ft
800 / 1500m
200 / 500 ft
< 800m
< 200 ft
Simboli :   Temporali  Nebbia  Neve Forte  Precipitazioni Forti  Vento > 20 kt






- Altitudine del aeroporto : 2264 ft
- Codice IATA : YZY


CYZY - Mackenzie

ULTIMO METAR :
  • 311900Z AUTO 14003KT 110V260 9SM SCT065 SCT076 16/09 A2968 RMK SLP059 DENSITY ALT 3100FT

METARs OBSOLETI :
  • 311800Z AUTO 20005KT 150V270 9SM FEW018 16/09 A2968 RMK SLP061 DENSITY ALT 3100FT
  • 311700Z AUTO 13003KT 110V170 9SM FEW013 SCT021 14/11 A2968 RMK SLP060 DENSITY ALT 2800FT
  • 311653Z AUTO 15007KT 9SM SCT013 SCT019 13/11 A2968 RMK SLP061 DENSITY ALT 2800FT

TAF TAF CYZY
Valido dal 31 a 19 ore il 01 a 07 ore UTC


311838Z 3119/0107 20005KT P6SM SCT020
TEMPO 3119/3121 BKN020
BECMG 3119/3121 22010G20KT
FM312100 22010G20KT P6SM SCT070
TEMPO 3121/0104 BKN070
FM010400 25010KT P6SM FEW070 RMK FCST BASED ON AUTO OBS. NXT FCST BY 010100Z
FIR CZVR / America del Nord



MetMap, La meteo Aeronautica in un colpo d'occhio ! - Copyright ORBIFLY Dicembre 2007 - Disclaimer

ORBIFLY MET'MAP TEAM :

Programmazione e sviluppo : Alexandra Zaïnal
Concezione : Baudouin d'Aumeries
Aiuto per la programmazione : Marc-Olivier Méhu
Supporto tecnico e logistico : Manuel Goepfert
Aiuto per la traduzione : Arnaldo La Scala

Contatto : metmap@orbifly.com




FONTI E CREDITI :

   NOAA       Earth
Advisory